sensor_id;sensor_type;location;lat;lon;timestamp;P1;durP1;ratioP1;P2;durP2;ratioP2
84763;SDS011;74992;51.072;6.088;2024-01-06T00:02:56;23.15;;;13.32;;
84763;SDS011;74992;51.072;6.088;2024-01-06T00:05:57;25.92;;;14.13;;
84763;SDS011;74992;51.072;6.088;2024-01-06T00:08:59;27.27;;;13.90;;
84763;SDS011;74992;51.072;6.088;2024-01-06T00:12:01;28.65;;;15.20;;
84763;SDS011;74992;51.072;6.088;2024-01-06T00:15:03;25.92;;;14.18;;
84763;SDS011;74992;51.072;6.088;2024-01-06T00:18:05;28.58;;;14.63;;
84763;SDS011;74992;51.072;6.088;2024-01-06T00:21:06;30.35;;;17.00;;
84763;SDS011;74992;51.072;6.088;2024-01-06T00:24:09;31.20;;;17.95;;
84763;SDS011;74992;51.072;6.088;2024-01-06T00:27:10;27.98;;;14.45;;
84763;SDS011;74992;51.072;6.088;2024-01-06T00:30:12;30.05;;;15.85;;
84763;SDS011;74992;51.072;6.088;2024-01-06T00:33:13;29.17;;;16.05;;
84763;SDS011;74992;51.072;6.088;2024-01-06T00:36:15;28.17;;;15.02;;
84763;SDS011;74992;51.072;6.088;2024-01-06T00:39:16;28.85;;;16.02;;
84763;SDS011;74992;51.072;6.088;2024-01-06T00:42:18;31.30;;;16.63;;
84763;SDS011;74992;51.072;6.088;2024-01-06T00:45:19;34.30;;;18.92;;
84763;SDS011;74992;51.072;6.088;2024-01-06T00:48:22;31.52;;;16.00;;
84763;SDS011;74992;51.072;6.088;2024-01-06T00:51:23;38.00;;;21.10;;
84763;SDS011;74992;51.072;6.088;2024-01-06T00:54:25;31.35;;;16.35;;
84763;SDS011;74992;51.072;6.088;2024-01-06T00:57:26;33.70;;;16.05;;
84763;SDS011;74992;51.072;6.088;2024-01-06T01:00:27;33.03;;;17.30;;
84763;SDS011;74992;51.072;6.088;2024-01-06T01:03:29;31.55;;;15.73;;
84763;SDS011;74992;51.072;6.088;2024-01-06T01:06:30;35.00;;;16.98;;
84763;SDS011;74992;51.072;6.088;2024-01-06T01:09:32;32.50;;;16.05;;
84763;SDS011;74992;51.072;6.088;2024-01-06T01:12:33;32.47;;;17.92;;
84763;SDS011;74992;51.072;6.088;2024-01-06T01:15:34;34.90;;;17.70;;
84763;SDS011;74992;51.072;6.088;2024-01-06T01:18:36;36.42;;;17.85;;
84763;SDS011;74992;51.072;6.088;2024-01-06T01:21:37;36.17;;;17.60;;
84763;SDS011;74992;51.072;6.088;2024-01-06T01:24:38;38.05;;;18.05;;
84763;SDS011;74992;51.072;6.088;2024-01-06T01:27:40;37.10;;;17.63;;
84763;SDS011;74992;51.072;6.088;2024-01-06T01:30:41;37.33;;;18.05;;
84763;SDS011;74992;51.072;6.088;2024-01-06T01:33:43;36.63;;;17.98;;
84763;SDS011;74992;51.072;6.088;2024-01-06T01:36:44;39.00;;;18.02;;
84763;SDS011;74992;51.072;6.088;2024-01-06T01:39:45;38.97;;;18.30;;
84763;SDS011;74992;51.072;6.088;2024-01-06T01:42:48;38.65;;;18.70;;
84763;SDS011;74992;51.072;6.088;2024-01-06T01:45:53;35.60;;;17.23;;
84763;SDS011;74992;51.072;6.088;2024-01-06T01:48:55;35.35;;;18.45;;
84763;SDS011;74992;51.072;6.088;2024-01-06T01:51:57;33.22;;;16.70;;
84763;SDS011;74992;51.072;6.088;2024-01-06T01:54:59;41.58;;;17.67;;
84763;SDS011;74992;51.072;6.088;2024-01-06T01:58:01;35.45;;;17.55;;
84763;SDS011;74992;51.072;6.088;2024-01-06T02:01:02;34.67;;;18.52;;
84763;SDS011;74992;51.072;6.088;2024-01-06T02:04:04;31.15;;;17.00;;
84763;SDS011;74992;51.072;6.088;2024-01-06T02:07:05;35.13;;;17.25;;
84763;SDS011;74992;51.072;6.088;2024-01-06T02:10:16;32.80;;;15.82;;
84763;SDS011;74992;51.072;6.088;2024-01-06T02:13:19;35.08;;;17.33;;
84763;SDS011;74992;51.072;6.088;2024-01-06T02:16:20;36.20;;;17.50;;
84763;SDS011;74992;51.072;6.088;2024-01-06T02:19:21;34.72;;;18.00;;
84763;SDS011;74992;51.072;6.088;2024-01-06T02:22:23;36.10;;;18.10;;
84763;SDS011;74992;51.072;6.088;2024-01-06T02:25:24;43.67;;;19.77;;
84763;SDS011;74992;51.072;6.088;2024-01-06T02:28:26;34.00;;;17.75;;
84763;SDS011;74992;51.072;6.088;2024-01-06T02:31:27;32.70;;;18.08;;
84763;SDS011;74992;51.072;6.088;2024-01-06T02:34:29;35.47;;;18.60;;
84763;SDS011;74992;51.072;6.088;2024-01-06T02:37:31;35.97;;;17.52;;
84763;SDS011;74992;51.072;6.088;2024-01-06T02:40:32;32.25;;;16.38;;
84763;SDS011;74992;51.072;6.088;2024-01-06T02:43:35;31.75;;;16.52;;
84763;SDS011;74992;51.072;6.088;2024-01-06T02:46:36;30.65;;;16.92;;
84763;SDS011;74992;51.072;6.088;2024-01-06T02:49:38;30.52;;;16.92;;
84763;SDS011;74992;51.072;6.088;2024-01-06T02:52:39;29.42;;;15.80;;
84763;SDS011;74992;51.072;6.088;2024-01-06T02:55:40;31.75;;;16.95;;
84763;SDS011;74992;51.072;6.088;2024-01-06T02:58:42;29.95;;;15.27;;
84763;SDS011;74992;51.072;6.088;2024-01-06T03:01:43;27.23;;;16.00;;
84763;SDS011;74992;51.072;6.088;2024-01-06T03:04:45;32.47;;;16.35;;
84763;SDS011;74992;51.072;6.088;2024-01-06T03:10:49;27.58;;;14.73;;
84763;SDS011;74992;51.072;6.088;2024-01-06T03:13:53;31.40;;;14.80;;
84763;SDS011;74992;51.072;6.088;2024-01-06T03:16:54;27.27;;;12.70;;
84763;SDS011;74992;51.072;6.088;2024-01-06T03:19:57;27.90;;;14.82;;
84763;SDS011;74992;51.072;6.088;2024-01-06T03:22:59;30.40;;;14.82;;
84763;SDS011;74992;51.072;6.088;2024-01-06T03:26:04;27.52;;;13.73;;
84763;SDS011;74992;51.072;6.088;2024-01-06T03:29:07;24.67;;;14.15;;
84763;SDS011;74992;51.072;6.088;2024-01-06T03:32:08;25.85;;;14.73;;
84763;SDS011;74992;51.072;6.088;2024-01-06T03:35:09;28.33;;;15.00;;
84763;SDS011;74992;51.072;6.088;2024-01-06T03:38:11;27.85;;;14.52;;
84763;SDS011;74992;51.072;6.088;2024-01-06T03:41:12;27.90;;;14.38;;
84763;SDS011;74992;51.072;6.088;2024-01-06T03:44:14;26.13;;;13.73;;
84763;SDS011;74992;51.072;6.088;2024-01-06T03:47:15;28.83;;;14.60;;
84763;SDS011;74992;51.072;6.088;2024-01-06T03:50:19;28.65;;;14.38;;
84763;SDS011;74992;51.072;6.088;2024-01-06T03:53:22;26.33;;;12.52;;
84763;SDS011;74992;51.072;6.088;2024-01-06T03:56:23;24.75;;;12.75;;
84763;SDS011;74992;51.072;6.088;2024-01-06T03:59:25;28.23;;;13.65;;
84763;SDS011;74992;51.072;6.088;2024-01-06T04:02:26;23.00;;;12.57;;
84763;SDS011;74992;51.072;6.088;2024-01-06T04:05:28;23.65;;;11.52;;
84763;SDS011;74992;51.072;6.088;2024-01-06T04:08:29;24.58;;;13.15;;
84763;SDS011;74992;51.072;6.088;2024-01-06T04:11:30;22.17;;;11.30;;
84763;SDS011;74992;51.072;6.088;2024-01-06T04:14:32;25.33;;;12.27;;
84763;SDS011;74992;51.072;6.088;2024-01-06T04:17:33;22.83;;;11.43;;
84763;SDS011;74992;51.072;6.088;2024-01-06T04:20:34;22.00;;;11.50;;
84763;SDS011;74992;51.072;6.088;2024-01-06T04:23:36;20.38;;;10.88;;
84763;SDS011;74992;51.072;6.088;2024-01-06T04:26:38;19.58;;;9.50;;
84763;SDS011;74992;51.072;6.088;2024-01-06T04:29:39;21.20;;;9.43;;
84763;SDS011;74992;51.072;6.088;2024-01-06T04:32:41;21.50;;;10.15;;
84763;SDS011;74992;51.072;6.088;2024-01-06T04:35:42;21.73;;;9.85;;
84763;SDS011;74992;51.072;6.088;2024-01-06T04:38:44;21.38;;;10.77;;
84763;SDS011;74992;51.072;6.088;2024-01-06T04:41:45;18.92;;;9.75;;
84763;SDS011;74992;51.072;6.088;2024-01-06T04:44:46;21.02;;;12.52;;
84763;SDS011;74992;51.072;6.088;2024-01-06T04:47:48;22.25;;;10.65;;
84763;SDS011;74992;51.072;6.088;2024-01-06T04:50:49;20.92;;;11.27;;
84763;SDS011;74992;51.072;6.088;2024-01-06T04:53:51;22.88;;;9.77;;
84763;SDS011;74992;51.072;6.088;2024-01-06T04:56:52;19.23;;;9.30;;
84763;SDS011;74992;51.072;6.088;2024-01-06T04:59:53;21.33;;;10.70;;
84763;SDS011;74992;51.072;6.088;2024-01-06T05:02:55;22.73;;;10.32;;
84763;SDS011;74992;51.072;6.088;2024-01-06T05:05:56;20.38;;;10.20;;
84763;SDS011;74992;51.072;6.088;2024-01-06T05:08:58;21.85;;;11.27;;
84763;SDS011;74992;51.072;6.088;2024-01-06T05:11:59;21.88;;;10.70;;
84763;SDS011;74992;51.072;6.088;2024-01-06T05:15:00;20.13;;;10.55;;
84763;SDS011;74992;51.072;6.088;2024-01-06T05:18:02;22.20;;;10.63;;
84763;SDS011;74992;51.072;6.088;2024-01-06T05:21:03;22.15;;;11.70;;
84763;SDS011;74992;51.072;6.088;2024-01-06T05:24:05;23.05;;;11.75;;
84763;SDS011;74992;51.072;6.088;2024-01-06T05:27:07;26.05;;;12.50;;
84763;SDS011;74992;51.072;6.088;2024-01-06T05:30:08;24.60;;;12.73;;
84763;SDS011;74992;51.072;6.088;2024-01-06T05:33:10;25.30;;;13.38;;
84763;SDS011;74992;51.072;6.088;2024-01-06T05:36:18;24.58;;;14.40;;
84763;SDS011;74992;51.072;6.088;2024-01-06T05:39:20;22.38;;;12.35;;
84763;SDS011;74992;51.072;6.088;2024-01-06T05:42:21;18.90;;;10.18;;
84763;SDS011;74992;51.072;6.088;2024-01-06T05:45:22;16.48;;;8.98;;
84763;SDS011;74992;51.072;6.088;2024-01-06T05:48:24;16.75;;;8.43;;
84763;SDS011;74992;51.072;6.088;2024-01-06T05:51:25;20.02;;;10.15;;
84763;SDS011;74992;51.072;6.088;2024-01-06T05:54:28;14.32;;;7.75;;
84763;SDS011;74992;51.072;6.088;2024-01-06T05:57:30;14.95;;;8.02;;
84763;SDS011;74992;51.072;6.088;2024-01-06T06:00:31;15.93;;;8.02;;
84763;SDS011;74992;51.072;6.088;2024-01-06T06:03:33;17.30;;;8.18;;
84763;SDS011;74992;51.072;6.088;2024-01-06T06:06:34;18.25;;;8.85;;
84763;SDS011;74992;51.072;6.088;2024-01-06T06:09:36;17.42;;;8.02;;
84763;SDS011;74992;51.072;6.088;2024-01-06T06:12:39;16.15;;;8.40;;
84763;SDS011;74992;51.072;6.088;2024-01-06T06:15:41;16.77;;;8.45;;
84763;SDS011;74992;51.072;6.088;2024-01-06T06:18:42;15.10;;;8.30;;
84763;SDS011;74992;51.072;6.088;2024-01-06T06:21:44;15.27;;;7.65;;
84763;SDS011;74992;51.072;6.088;2024-01-06T06:24:45;17.17;;;8.27;;
84763;SDS011;74992;51.072;6.088;2024-01-06T06:27:47;14.55;;;7.25;;
84763;SDS011;74992;51.072;6.088;2024-01-06T06:30:48;16.67;;;7.60;;
84763;SDS011;74992;51.072;6.088;2024-01-06T06:33:51;18.17;;;8.30;;
84763;SDS011;74992;51.072;6.088;2024-01-06T06:36:52;15.63;;;7.57;;
84763;SDS011;74992;51.072;6.088;2024-01-06T06:39:54;17.17;;;8.10;;
84763;SDS011;74992;51.072;6.088;2024-01-06T06:42:55;17.45;;;8.10;;
84763;SDS011;74992;51.072;6.088;2024-01-06T06:45:56;14.57;;;7.85;;
84763;SDS011;74992;51.072;6.088;2024-01-06T06:48:58;15.35;;;7.65;;
84763;SDS011;74992;51.072;6.088;2024-01-06T06:51:59;15.10;;;8.43;;
84763;SDS011;74992;51.072;6.088;2024-01-06T06:55:00;16.25;;;7.80;;
84763;SDS011;74992;51.072;6.088;2024-01-06T06:58:02;15.48;;;9.45;;
84763;SDS011;74992;51.072;6.088;2024-01-06T07:01:03;17.38;;;8.13;;
84763;SDS011;74992;51.072;6.088;2024-01-06T07:04:05;13.85;;;7.43;;
84763;SDS011;74992;51.072;6.088;2024-01-06T07:07:06;15.40;;;7.93;;
84763;SDS011;74992;51.072;6.088;2024-01-06T07:10:08;14.13;;;7.30;;
84763;SDS011;74992;51.072;6.088;2024-01-06T07:13:09;15.63;;;7.72;;
84763;SDS011;74992;51.072;6.088;2024-01-06T07:16:11;14.02;;;7.28;;
84763;SDS011;74992;51.072;6.088;2024-01-06T07:19:12;15.13;;;7.60;;
84763;SDS011;74992;51.072;6.088;2024-01-06T07:22:14;14.93;;;7.50;;
84763;SDS011;74992;51.072;6.088;2024-01-06T07:25:16;14.65;;;7.88;;
84763;SDS011;74992;51.072;6.088;2024-01-06T07:28:17;13.93;;;7.95;;
84763;SDS011;74992;51.072;6.088;2024-01-06T07:31:19;12.70;;;8.18;;
84763;SDS011;74992;51.072;6.088;2024-01-06T07:34:20;17.60;;;8.98;;
84763;SDS011;74992;51.072;6.088;2024-01-06T07:37:22;18.40;;;9.57;;
84763;SDS011;74992;51.072;6.088;2024-01-06T07:40:23;11.85;;;6.55;;
84763;SDS011;74992;51.072;6.088;2024-01-06T07:43:25;17.83;;;9.02;;
84763;SDS011;74992;51.072;6.088;2024-01-06T07:46:27;17.30;;;7.38;;
84763;SDS011;74992;51.072;6.088;2024-01-06T07:49:28;13.57;;;7.22;;
84763;SDS011;74992;51.072;6.088;2024-01-06T07:52:30;12.85;;;6.57;;
84763;SDS011;74992;51.072;6.088;2024-01-06T07:55:34;13.90;;;7.80;;
84763;SDS011;74992;51.072;6.088;2024-01-06T07:58:35;16.60;;;8.82;;
84763;SDS011;74992;51.072;6.088;2024-01-06T08:01:36;14.43;;;8.10;;
84763;SDS011;74992;51.072;6.088;2024-01-06T08:04:38;13.98;;;7.45;;
84763;SDS011;74992;51.072;6.088;2024-01-06T08:07:39;15.65;;;8.05;;
84763;SDS011;74992;51.072;6.088;2024-01-06T08:10:40;15.27;;;8.05;;
84763;SDS011;74992;51.072;6.088;2024-01-06T08:13:42;15.40;;;8.80;;
84763;SDS011;74992;51.072;6.088;2024-01-06T08:16:43;15.43;;;8.18;;
84763;SDS011;74992;51.072;6.088;2024-01-06T08:19:46;14.10;;;7.22;;
84763;SDS011;74992;51.072;6.088;2024-01-06T08:22:47;15.05;;;8.00;;
84763;SDS011;74992;51.072;6.088;2024-01-06T08:25:49;12.38;;;6.68;;
84763;SDS011;74992;51.072;6.088;2024-01-06T08:28:50;16.50;;;8.25;;
84763;SDS011;74992;51.072;6.088;2024-01-06T08:31:52;14.23;;;8.57;;
84763;SDS011;74992;51.072;6.088;2024-01-06T08:34:54;14.60;;;7.38;;
84763;SDS011;74992;51.072;6.088;2024-01-06T08:37:56;14.73;;;7.35;;
84763;SDS011;74992;51.072;6.088;2024-01-06T08:40:57;13.90;;;7.22;;
84763;SDS011;74992;51.072;6.088;2024-01-06T08:43:58;13.95;;;7.60;;
84763;SDS011;74992;51.072;6.088;2024-01-06T08:47:00;14.10;;;7.07;;
84763;SDS011;74992;51.072;6.088;2024-01-06T08:50:01;17.27;;;7.90;;
84763;SDS011;74992;51.072;6.088;2024-01-06T08:53:03;15.13;;;8.00;;
84763;SDS011;74992;51.072;6.088;2024-01-06T08:56:04;17.08;;;9.30;;
84763;SDS011;74992;51.072;6.088;2024-01-06T08:59:06;15.38;;;7.85;;
84763;SDS011;74992;51.072;6.088;2024-01-06T09:02:08;20.75;;;10.00;;
84763;SDS011;74992;51.072;6.088;2024-01-06T09:05:09;16.95;;;9.57;;
84763;SDS011;74992;51.072;6.088;2024-01-06T09:08:11;16.05;;;8.55;;
84763;SDS011;74992;51.072;6.088;2024-01-06T09:11:12;16.83;;;7.82;;
84763;SDS011;74992;51.072;6.088;2024-01-06T09:14:13;18.15;;;9.07;;
84763;SDS011;74992;51.072;6.088;2024-01-06T09:17:15;15.13;;;8.43;;
84763;SDS011;74992;51.072;6.088;2024-01-06T09:20:16;15.75;;;8.23;;
84763;SDS011;74992;51.072;6.088;2024-01-06T09:23:22;14.48;;;7.95;;
84763;SDS011;74992;51.072;6.088;2024-01-06T09:26:25;13.98;;;7.03;;
84763;SDS011;74992;51.072;6.088;2024-01-06T09:32:28;15.88;;;7.95;;
84763;SDS011;74992;51.072;6.088;2024-01-06T09:35:30;13.93;;;7.55;;
84763;SDS011;74992;51.072;6.088;2024-01-06T09:38:32;15.10;;;7.15;;
84763;SDS011;74992;51.072;6.088;2024-01-06T09:41:34;15.35;;;7.28;;
84763;SDS011;74992;51.072;6.088;2024-01-06T09:44:35;14.63;;;6.85;;
84763;SDS011;74992;51.072;6.088;2024-01-06T09:47:36;14.70;;;7.32;;
84763;SDS011;74992;51.072;6.088;2024-01-06T09:50:41;14.85;;;7.80;;
84763;SDS011;74992;51.072;6.088;2024-01-06T09:56:49;16.60;;;8.20;;
84763;SDS011;74992;51.072;6.088;2024-01-06T09:59:51;15.48;;;8.15;;
84763;SDS011;74992;51.072;6.088;2024-01-06T10:02:53;15.05;;;7.18;;
84763;SDS011;74992;51.072;6.088;2024-01-06T10:05:55;15.70;;;7.68;;
84763;SDS011;74992;51.072;6.088;2024-01-06T10:09:00;15.68;;;8.82;;
84763;SDS011;74992;51.072;6.088;2024-01-06T10:12:01;16.92;;;8.38;;
84763;SDS011;74992;51.072;6.088;2024-01-06T10:15:03;17.17;;;8.52;;
84763;SDS011;74992;51.072;6.088;2024-01-06T10:18:06;18.15;;;8.27;;
84763;SDS011;74992;51.072;6.088;2024-01-06T10:21:08;19.08;;;7.72;;
84763;SDS011;74992;51.072;6.088;2024-01-06T10:24:09;18.63;;;8.98;;
84763;SDS011;74992;51.072;6.088;2024-01-06T10:27:11;17.23;;;8.57;;
84763;SDS011;74992;51.072;6.088;2024-01-06T10:30:13;16.95;;;8.85;;
84763;SDS011;74992;51.072;6.088;2024-01-06T10:33:18;19.63;;;8.35;;
84763;SDS011;74992;51.072;6.088;2024-01-06T10:36:21;18.48;;;8.68;;
84763;SDS011;74992;51.072;6.088;2024-01-06T10:39:24;16.98;;;8.02;;
84763;SDS011;74992;51.072;6.088;2024-01-06T10:42:28;17.67;;;8.82;;
84763;SDS011;74992;51.072;6.088;2024-01-06T10:45:30;18.70;;;7.78;;
84763;SDS011;74992;51.072;6.088;2024-01-06T10:48:33;16.40;;;7.95;;
84763;SDS011;74992;51.072;6.088;2024-01-06T10:51:38;16.27;;;8.02;;
84763;SDS011;74992;51.072;6.088;2024-01-06T10:54:40;14.32;;;7.50;;
84763;SDS011;74992;51.072;6.088;2024-01-06T10:57:42;14.20;;;7.03;;
84763;SDS011;74992;51.072;6.088;2024-01-06T11:00:45;16.42;;;7.13;;
84763;SDS011;74992;51.072;6.088;2024-01-06T11:03:47;16.00;;;7.55;;
84763;SDS011;74992;51.072;6.088;2024-01-06T11:06:49;15.02;;;7.40;;
84763;SDS011;74992;51.072;6.088;2024-01-06T11:13:06;17.20;;;8.40;;
84763;SDS011;74992;51.072;6.088;2024-01-06T11:16:09;16.23;;;8.35;;
84763;SDS011;74992;51.072;6.088;2024-01-06T11:22:37;18.17;;;9.07;;
84763;SDS011;74992;51.072;6.088;2024-01-06T11:25:40;17.90;;;8.68;;
84763;SDS011;74992;51.072;6.088;2024-01-06T11:28:45;15.48;;;8.25;;
84763;SDS011;74992;51.072;6.088;2024-01-06T11:32:25;15.95;;;8.10;;
84763;SDS011;74992;51.072;6.088;2024-01-06T11:35:28;17.58;;;8.85;;
84763;SDS011;74992;51.072;6.088;2024-01-06T11:38:33;17.63;;;8.02;;
84763;SDS011;74992;51.072;6.088;2024-01-06T11:41:48;15.70;;;7.50;;
84763;SDS011;74992;51.072;6.088;2024-01-06T11:44:50;18.48;;;8.55;;
84763;SDS011;74992;51.072;6.088;2024-01-06T11:47:59;17.77;;;8.30;;
84763;SDS011;74992;51.072;6.088;2024-01-06T11:51:03;20.17;;;9.35;;
84763;SDS011;74992;51.072;6.088;2024-01-06T11:54:05;15.35;;;8.30;;
84763;SDS011;74992;51.072;6.088;2024-01-06T11:57:06;16.75;;;9.73;;
84763;SDS011;74992;51.072;6.088;2024-01-06T12:00:09;18.17;;;9.20;;
84763;SDS011;74992;51.072;6.088;2024-01-06T12:03:11;20.15;;;9.70;;
84763;SDS011;74992;51.072;6.088;2024-01-06T12:06:19;21.13;;;9.50;;
84763;SDS011;74992;51.072;6.088;2024-01-06T12:09:23;18.40;;;8.80;;
84763;SDS011;74992;51.072;6.088;2024-01-06T12:12:26;19.73;;;9.57;;
84763;SDS011;74992;51.072;6.088;2024-01-06T12:15:29;21.00;;;10.48;;
84763;SDS011;74992;51.072;6.088;2024-01-06T12:18:32;23.90;;;10.80;;
84763;SDS011;74992;51.072;6.088;2024-01-06T12:21:33;21.48;;;10.20;;
84763;SDS011;74992;51.072;6.088;2024-01-06T12:24:37;16.50;;;9.52;;
84763;SDS011;74992;51.072;6.088;2024-01-06T12:27:41;20.67;;;9.55;;
84763;SDS011;74992;51.072;6.088;2024-01-06T12:30:46;29.40;;;11.02;;
84763;SDS011;74992;51.072;6.088;2024-01-06T12:33:47;19.55;;;9.98;;
84763;SDS011;74992;51.072;6.088;2024-01-06T12:36:50;22.70;;;10.10;;
84763;SDS011;74992;51.072;6.088;2024-01-06T12:39:54;22.30;;;10.65;;
84763;SDS011;74992;51.072;6.088;2024-01-06T12:42:58;19.35;;;10.18;;
84763;SDS011;74992;51.072;6.088;2024-01-06T12:45:59;20.63;;;10.38;;
84763;SDS011;74992;51.072;6.088;2024-01-06T12:49:00;20.02;;;11.52;;
84763;SDS011;74992;51.072;6.088;2024-01-06T12:52:03;22.52;;;11.90;;
84763;SDS011;74992;51.072;6.088;2024-01-06T12:55:05;22.98;;;11.82;;
84763;SDS011;74992;51.072;6.088;2024-01-06T12:58:08;24.88;;;12.45;;
84763;SDS011;74992;51.072;6.088;2024-01-06T13:01:09;20.67;;;10.73;;
84763;SDS011;74992;51.072;6.088;2024-01-06T13:04:11;18.55;;;10.13;;
84763;SDS011;74992;51.072;6.088;2024-01-06T13:07:13;19.63;;;9.80;;
84763;SDS011;74992;51.072;6.088;2024-01-06T13:10:15;18.60;;;9.60;;
84763;SDS011;74992;51.072;6.088;2024-01-06T13:13:16;22.30;;;10.60;;
84763;SDS011;74992;51.072;6.088;2024-01-06T13:16:18;21.92;;;11.00;;
84763;SDS011;74992;51.072;6.088;2024-01-06T13:19:19;26.20;;;14.23;;
84763;SDS011;74992;51.072;6.088;2024-01-06T13:22:21;27.10;;;14.68;;
84763;SDS011;74992;51.072;6.088;2024-01-06T13:25:22;26.75;;;14.10;;
84763;SDS011;74992;51.072;6.088;2024-01-06T13:28:24;28.02;;;13.85;;
84763;SDS011;74992;51.072;6.088;2024-01-06T13:31:25;27.10;;;14.38;;
84763;SDS011;74992;51.072;6.088;2024-01-06T13:34:27;28.13;;;14.27;;
84763;SDS011;74992;51.072;6.088;2024-01-06T13:37:32;24.92;;;13.25;;
84763;SDS011;74992;51.072;6.088;2024-01-06T13:40:34;23.38;;;12.13;;
84763;SDS011;74992;51.072;6.088;2024-01-06T13:43:35;23.35;;;11.55;;
84763;SDS011;74992;51.072;6.088;2024-01-06T13:46:37;20.98;;;10.57;;
84763;SDS011;74992;51.072;6.088;2024-01-06T13:49:40;26.45;;;11.43;;
84763;SDS011;74992;51.072;6.088;2024-01-06T13:52:42;22.98;;;10.77;;
84763;SDS011;74992;51.072;6.088;2024-01-06T13:55:45;21.58;;;11.50;;
84763;SDS011;74992;51.072;6.088;2024-01-06T13:58:46;20.40;;;10.48;;
84763;SDS011;74992;51.072;6.088;2024-01-06T14:01:48;23.02;;;10.90;;
84763;SDS011;74992;51.072;6.088;2024-01-06T14:04:51;20.50;;;10.75;;
84763;SDS011;74992;51.072;6.088;2024-01-06T14:07:52;20.63;;;10.63;;
84763;SDS011;74992;51.072;6.088;2024-01-06T14:10:54;19.15;;;10.32;;
84763;SDS011;74992;51.072;6.088;2024-01-06T14:13:57;22.58;;;12.27;;
84763;SDS011;74992;51.072;6.088;2024-01-06T14:16:59;19.60;;;10.35;;
84763;SDS011;74992;51.072;6.088;2024-01-06T14:20:01;16.23;;;8.57;;
84763;SDS011;74992;51.072;6.088;2024-01-06T14:23:03;16.83;;;9.07;;
84763;SDS011;74992;51.072;6.088;2024-01-06T14:26:05;17.05;;;9.77;;
84763;SDS011;74992;51.072;6.088;2024-01-06T14:29:06;18.52;;;9.77;;
84763;SDS011;74992;51.072;6.088;2024-01-06T14:32:07;20.45;;;11.73;;
84763;SDS011;74992;51.072;6.088;2024-01-06T14:35:09;21.55;;;10.70;;
84763;SDS011;74992;51.072;6.088;2024-01-06T14:38:11;20.23;;;11.07;;
84763;SDS011;74992;51.072;6.088;2024-01-06T14:41:13;18.75;;;10.63;;
84763;SDS011;74992;51.072;6.088;2024-01-06T14:44:14;20.63;;;11.27;;
84763;SDS011;74992;51.072;6.088;2024-01-06T14:47:17;19.70;;;11.05;;
84763;SDS011;74992;51.072;6.088;2024-01-06T14:50:19;19.48;;;10.65;;
84763;SDS011;74992;51.072;6.088;2024-01-06T14:53:20;19.67;;;10.35;;
84763;SDS011;74992;51.072;6.088;2024-01-06T14:56:21;20.27;;;10.73;;
84763;SDS011;74992;51.072;6.088;2024-01-06T14:59:23;19.45;;;10.82;;
84763;SDS011;74992;51.072;6.088;2024-01-06T15:02:24;23.30;;;11.23;;
84763;SDS011;74992;51.072;6.088;2024-01-06T15:05:27;21.20;;;12.20;;
84763;SDS011;74992;51.072;6.088;2024-01-06T15:08:29;22.65;;;12.35;;
84763;SDS011;74992;51.072;6.088;2024-01-06T15:11:32;22.33;;;13.60;;
84763;SDS011;74992;51.072;6.088;2024-01-06T15:14:33;20.73;;;11.68;;
84763;SDS011;74992;51.072;6.088;2024-01-06T15:17:35;19.60;;;11.40;;
84763;SDS011;74992;51.072;6.088;2024-01-06T15:20:36;19.88;;;11.63;;
84763;SDS011;74992;51.072;6.088;2024-01-06T15:23:38;22.27;;;11.55;;
84763;SDS011;74992;51.072;6.088;2024-01-06T15:26:40;21.40;;;11.38;;
84763;SDS011;74992;51.072;6.088;2024-01-06T15:29:42;24.85;;;12.82;;
84763;SDS011;74992;51.072;6.088;2024-01-06T15:32:44;24.17;;;13.52;;
84763;SDS011;74992;51.072;6.088;2024-01-06T15:35:45;24.00;;;13.63;;
84763;SDS011;74992;51.072;6.088;2024-01-06T15:38:47;23.17;;;13.60;;
84763;SDS011;74992;51.072;6.088;2024-01-06T15:41:48;23.92;;;13.43;;
84763;SDS011;74992;51.072;6.088;2024-01-06T15:44:51;22.08;;;12.57;;
84763;SDS011;74992;51.072;6.088;2024-01-06T15:47:52;22.33;;;13.18;;
84763;SDS011;74992;51.072;6.088;2024-01-06T15:50:54;20.23;;;11.40;;
84763;SDS011;74992;51.072;6.088;2024-01-06T15:53:55;26.13;;;14.98;;
84763;SDS011;74992;51.072;6.088;2024-01-06T15:56:57;26.17;;;13.80;;
84763;SDS011;74992;51.072;6.088;2024-01-06T15:59:58;22.15;;;12.63;;
84763;SDS011;74992;51.072;6.088;2024-01-06T16:02:59;24.67;;;14.23;;
84763;SDS011;74992;51.072;6.088;2024-01-06T16:06:02;25.98;;;13.15;;
84763;SDS011;74992;51.072;6.088;2024-01-06T16:09:04;22.90;;;12.73;;
84763;SDS011;74992;51.072;6.088;2024-01-06T16:12:06;20.92;;;11.40;;
84763;SDS011;74992;51.072;6.088;2024-01-06T16:15:08;24.10;;;12.40;;
84763;SDS011;74992;51.072;6.088;2024-01-06T16:18:09;22.55;;;11.68;;
84763;SDS011;74992;51.072;6.088;2024-01-06T16:21:11;21.70;;;13.38;;
84763;SDS011;74992;51.072;6.088;2024-01-06T16:24:12;20.77;;;12.07;;
84763;SDS011;74992;51.072;6.088;2024-01-06T16:27:14;21.17;;;13.13;;
84763;SDS011;74992;51.072;6.088;2024-01-06T16:30:29;23.23;;;11.25;;
84763;SDS011;74992;51.072;6.088;2024-01-06T16:33:30;22.67;;;13.32;;
84763;SDS011;74992;51.072;6.088;2024-01-06T16:36:32;23.60;;;12.95;;
84763;SDS011;74992;51.072;6.088;2024-01-06T16:39:34;22.42;;;12.80;;
84763;SDS011;74992;51.072;6.088;2024-01-06T16:42:38;21.95;;;12.52;;
84763;SDS011;74992;51.072;6.088;2024-01-06T16:45:40;21.85;;;12.35;;
84763;SDS011;74992;51.072;6.088;2024-01-06T16:48:43;20.85;;;12.25;;
84763;SDS011;74992;51.072;6.088;2024-01-06T16:51:44;21.75;;;11.20;;
84763;SDS011;74992;51.072;6.088;2024-01-06T16:54:46;20.20;;;11.07;;
84763;SDS011;74992;51.072;6.088;2024-01-06T16:57:47;21.52;;;10.77;;
84763;SDS011;74992;51.072;6.088;2024-01-06T17:00:49;21.05;;;10.50;;
84763;SDS011;74992;51.072;6.088;2024-01-06T17:03:51;21.08;;;11.48;;
84763;SDS011;74992;51.072;6.088;2024-01-06T17:06:52;20.40;;;11.15;;
84763;SDS011;74992;51.072;6.088;2024-01-06T17:09:54;23.23;;;12.07;;
84763;SDS011;74992;51.072;6.088;2024-01-06T17:12:58;19.65;;;12.00;;
84763;SDS011;74992;51.072;6.088;2024-01-06T17:16:01;22.80;;;12.43;;
84763;SDS011;74992;51.072;6.088;2024-01-06T17:19:02;22.08;;;12.30;;
84763;SDS011;74992;51.072;6.088;2024-01-06T17:22:05;24.10;;;12.70;;
84763;SDS011;74992;51.072;6.088;2024-01-06T17:25:06;22.05;;;12.95;;
84763;SDS011;74992;51.072;6.088;2024-01-06T17:28:10;23.10;;;12.80;;
84763;SDS011;74992;51.072;6.088;2024-01-06T17:31:11;25.10;;;12.57;;
84763;SDS011;74992;51.072;6.088;2024-01-06T17:34:13;23.35;;;12.70;;
84763;SDS011;74992;51.072;6.088;2024-01-06T17:37:16;26.52;;;13.88;;
84763;SDS011;74992;51.072;6.088;2024-01-06T17:43:19;23.75;;;11.88;;
84763;SDS011;74992;51.072;6.088;2024-01-06T17:46:21;24.88;;;13.55;;
84763;SDS011;74992;51.072;6.088;2024-01-06T17:49:26;25.77;;;13.15;;
84763;SDS011;74992;51.072;6.088;2024-01-06T17:52:27;28.90;;;14.57;;
84763;SDS011;74992;51.072;6.088;2024-01-06T17:55:29;26.23;;;14.00;;
84763;SDS011;74992;51.072;6.088;2024-01-06T17:58:30;23.58;;;13.40;;
84763;SDS011;74992;51.072;6.088;2024-01-06T18:01:32;26.42;;;13.85;;
84763;SDS011;74992;51.072;6.088;2024-01-06T18:07:36;27.98;;;14.13;;
84763;SDS011;74992;51.072;6.088;2024-01-06T18:10:38;23.58;;;13.70;;
84763;SDS011;74992;51.072;6.088;2024-01-06T18:13:42;27.63;;;15.07;;